Takotna, Alaska
Current Conditions -  °F | °C
As of 10:55 AM on Sunday 23 Nov 2014 (Local Time) from PATL Reporting Station
Overcast Overcast  
Wind Chill: -4°   Ceiling: 6500
Heat Index:   Visibility: 10mi
Dew Point: -2°   Wind: 6mph
Humidity: 69%   Direction: NA
Pressure: 29.51"   Gusts: NA
Location:  62.99°N, 156.09°W
Report Text: PATL 231955Z AUTO VRB05KT 10SM OVC065 M14/M19 A2951 RMK AO2 SLP024 T11431189
Loading
Personal Weather Stations






























Interactive Weather Map New forecast layout! Learn more

10-Day Weather Forecast

Advertisements
Track Severe Weather on mobile